Henefer, UT (84033)

1:06 PM MDT on March 28, 2017 (GMT -0600)
MC8428 | | Change Station

Elev 5103 ft 41.05 °N, 111.67 °W | Updated 12 minutes ago

Partly Cloudy
Partly Cloudy
46.0 °F
Feels Like 41 °F
N
11.0
Wind Variable Wind from West
Gusts 19.0 mph

Today
High -- | Low -- °F
--% Chance of Precip.
Yesterday
High -- | Low -- °F
Precip. -- in
Pressure 30.09 in
Visibility 10.0 miles
Clouds Scattered Clouds 4000 ft
Windchill 41 °F
Dew Point 30 °F
Humidity 53%
Rainfall 0.30 in
Snow Depth Not available.
7:15 AM 7:47 PM
New Moon, 1% visible
METAR KHIF 281858Z 33010KT 10SM SCT040 08/M01 A3013 RMK AO2A SLP190 T00841014
Pressure 30.09 in
Visibility 10.0 miles
Clouds Scattered Clouds 4000 ft
Windchill 41 °F
Dew Point 30 °F
Humidity 53%
Rainfall 0.30 in
Snow Depth Not available.
7:15 AM 7:47 PM
New Moon, 1% visible
METAR KHIF 281858Z 33010KT 10SM SCT040 08/M01 A3013 RMK AO2A SLP190 T00841014

Get Severe Weather Alerts

Thanks for signing up!

Be on the lookout for a verification email in your inbox.

You'll start receiving the daily forecast at 8 AM.

×

10-Day Weather Forecast

Almanac

Astronomy

Mar. 28, 2017 Rise Set
Actual Time
Civil Twilight
Nautical Twilight
Astronomical Twilight
Moon
Length of Visible Light
Length of Day
Tomorrow will be .
, % of the Moon is Illuminated

Today's Extremes

State Highs State Lows

Community

WunderPhotos

Upload Photos

1,962,540 photos uploaded!

WunderBlog® & News

Nearby

Air Quality

  Air Quality AQ Index Pollutant
Not available.

Snow Depth

Station Depth Elevation

Earthquake Activity

City Distance Mag. Time & Date
Minimum magnitude displayed is 2.5.

Earthquake Activity

City Distance Mag. Time & Date
Minimum magnitude displayed is 2.5.

Coastal Water Temperatures

Place Temperature

Stations

Nearby Weather Stations

Station Location Temp. Windchill Dew Point Humidity Wind Precip. Elev Updated Type
                   

Watches & Warnings

There are currently no watches in effect.